Estació municipal de Seva (Osona, P.N. del Montseny)

Consulta les dades en temps real de l'estació municipal de Seva





Hora UTC 02:40
Temperatura 16.9 ºC
Sòl 15 cm 15.3 ºC
Humitat 93.3 %
Pressió 1023.5 hPa
Pluja 0.0 mm
Velocitat vent 2.8 km/h
Direcció vent E
Radiació solar 0.1 W/m²

Webcam

Dades diàries 2026-09-02



Hora UTC (hivern +1h; estiu +2h)
Temperatura (ºC) Humitat (%) Pressió (hPa) Velocitat vent (km/h) Precipitació (mm) Radiació solar (W/m²)
Hora UTC Aire Sòl 15 cm Humitat Pressió Vel. Dir. Vel. Max Dir. Intent. màx 5 min. Rad. Sol.
00:05 18.0 16.3 88.9 1023.8 2.9 ESE 2.9 ESE 0.0 0.0
00:10 17.9 16.2 89.8 1023.8 1.9 SE 3.9 SE 0.0 0.1
00:15 18.0 16.2 90.4 1023.8 3.0 ESE 4.2 ESE 0.0 0.1
00:20 17.9 16.2 89.8 1023.8 2.4 E 3.5 ESE 0.0 0.0
00:25 17.8 16.1 90.7 1023.8 2.3 SE 3.2 SE 0.0 0.1
00:30 17.9 16.1 91.0 1023.7 2.2 SE 3.2 SE 0.0 0.1
00:35 17.9 16.2 90.7 1023.7 1.2 SSE 2.5 S 0.0 0.1
00:40 17.7 16.0 90.1 1023.7 1.5 ESE 3.5 ESE 0.0 0.1
00:45 17.6 15.9 90.6 1023.8 2.0 SSE 3.2 S 0.0 0.0
00:50 17.5 15.8 90.3 1023.8 2.4 SE 4.2 SE 0.0 0.1
00:55 17.4 15.7 90.7 1023.7 3.3 SSE 4.1 SSW 0.0 0.0
01:00 17.5 15.7 91.3 1023.7 4.9 E 8.5 ENE 0.0 0.1
01:05 17.4 15.7 91.6 1023.7 3.0 ESE 4.6 SE 0.0 0.1
01:10 17.6 15.8 91.9 1023.7 3.7 E 7.1 E 0.0 0.0
01:15 17.5 15.9 91.2 1023.7 5.0 E 6.7 ENE 0.0 0.0
01:20 17.5 15.9 91.6 1023.8 4.3 E 5.3 E 0.0 0.0
01:25 17.5 15.9 91.4 1023.7 5.2 ENE 6.7 ENE 0.0 0.0
01:30 17.5 15.9 91.5 1023.6 5.8 ENE 7.4 ENE 0.0 0.1
01:35 17.6 16.1 91.8 1023.5 6.0 E 8.8 ESE 0.0 0.0
01:40 17.8 16.2 92.2 1023.5 7.6 ESE 9.9 E 0.0 0.1
01:45 18.0 16.2 91.9 1023.4 6.6 ESE 9.2 ESE 0.0 0.0
01:50 18.2 16.4 92.0 1023.5 6.0 ESE 8.1 ESE 0.0 0.1
01:55 18.3 16.5 90.7 1023.6 3.0 SE 8.1 ESE 0.0 0.1
02:00 18.0 16.4 90.2 1023.7 2.7 WNW 3.5 W 0.0 0.0
02:05 17.9 16.3 90.6 1023.7 1.2 NW 2.8 WNW 0.0 0.0
02:10 17.8 16.1 91.1 1023.7 2.3 ENE 4.9 ENE 0.0 0.1
02:15 17.7 16.0 91.8 1023.7 4.4 E 5.6 ENE 0.0 0.1
02:20 17.5 15.9 92.0 1023.6 3.4 E 6.0 E 0.0 0.1
02:25 17.3 15.8 92.3 1023.5 3.5 E 5.3 E 0.0 0.1
02:30 17.2 15.6 92.6 1023.5 4.7 E 6.0 E 0.0 0.1
02:35 17.0 15.5 92.8 1023.5 3.9 E 5.3 ENE 0.0 0.0
02:40 16.9 15.3 93.3 1023.5 2.8 E 3.9 E 0.0 0.1
Màxima 18.3 16.5 93.3 1023.8 7.6 ESE 9.9 E 0.0 0.1
Mínima 16.9 15.3 88.9 1023.4
Total 0.0